KTMK

Tillamook Airport

Tillamook, Oregon, USA
METAR KTMK 210155Z AUTO 32004KT 4SM BR CLR 15/13 A2999 RMK AO2
Observed Flight Rules
Aug-21 @ 01:55 UTC (19 minutes ago) Marginal Visual Flight Rules
Wind Visibility Clouds Conditions
320° at 4 knots 4 miles
  • Clear skies
  • Mist
Temperatures Readings
Current 15°C / 59°F
Dewpoint 13°C / 55°F
Humidity 88%
Altimeter 29.99" Hg
Pressure 1016 hPa
Elevation 11
METAR KTMK 210155Z AUTO 32004KT 4SM BR CLR 15/13 A2999 RMK AO2
Observed Flight Rules
Aug-21 @ 01:55 UTC
(19 minutes ago)
MVFR
Wind Visibility
320° at 4 knots 4 miles
Clouds
  • Clear skies
Conditions
  • Mist
Temperature Dewpoint
15°C / 59°F 13°C / 55°F
Humidity Altimeter Pressure
88% 29.99" Hg 1016 hPa